sensor_id;sensor_type;location;lat;lon;timestamp;temperature;humidity
59015;DHT22;44799;53.382;14.666;2022-07-23T00:02:02;18.80;99.00
59015;DHT22;44799;53.382;14.666;2022-07-23T00:04:28;18.80;99.00
59015;DHT22;44799;53.382;14.666;2022-07-23T00:06:54;18.80;98.90
59015;DHT22;44799;53.382;14.666;2022-07-23T00:09:20;18.80;98.90
59015;DHT22;44799;53.382;14.666;2022-07-23T00:11:46;18.80;98.80
59015;DHT22;44799;53.382;14.666;2022-07-23T00:14:11;18.80;98.80
59015;DHT22;44799;53.382;14.666;2022-07-23T00:16:37;18.70;98.80
59015;DHT22;44799;53.382;14.666;2022-07-23T00:19:03;18.70;99.10
59015;DHT22;44799;53.382;14.666;2022-07-23T00:21:29;18.70;98.90
59015;DHT22;44799;53.382;14.666;2022-07-23T00:23:55;18.70;99.10
59015;DHT22;44799;53.382;14.666;2022-07-23T00:26:21;18.70;99.10
59015;DHT22;44799;53.382;14.666;2022-07-23T00:28:46;18.70;99.10
59015;DHT22;44799;53.382;14.666;2022-07-23T00:31:12;18.70;99.10
59015;DHT22;44799;53.382;14.666;2022-07-23T00:33:38;18.70;99.20
59015;DHT22;44799;53.382;14.666;2022-07-23T00:36:04;18.60;99.00
59015;DHT22;44799;53.382;14.666;2022-07-23T00:38:30;18.60;99.00
59015;DHT22;44799;53.382;14.666;2022-07-23T00:40:56;18.50;99.00
59015;DHT22;44799;53.382;14.666;2022-07-23T00:43:22;18.50;99.00
59015;DHT22;44799;53.382;14.666;2022-07-23T00:45:49;18.50;99.70
59015;DHT22;44799;53.382;14.666;2022-07-23T00:48:15;18.50;99.30
59015;DHT22;44799;53.382;14.666;2022-07-23T00:50:41;18.50;99.40
59015;DHT22;44799;53.382;14.666;2022-07-23T00:53:07;18.50;99.40
59015;DHT22;44799;53.382;14.666;2022-07-23T00:55:34;18.40;99.50
59015;DHT22;44799;53.382;14.666;2022-07-23T00:58:02;18.40;99.50
59015;DHT22;44799;53.382;14.666;2022-07-23T01:00:28;18.40;99.30
59015;DHT22;44799;53.382;14.666;2022-07-23T01:02:54;18.40;99.30
59015;DHT22;44799;53.382;14.666;2022-07-23T01:05:20;18.30;99.30
59015;DHT22;44799;53.382;14.666;2022-07-23T01:07:49;18.20;99.50
59015;DHT22;44799;53.382;14.666;2022-07-23T01:10:15;18.20;99.70
59015;DHT22;44799;53.382;14.666;2022-07-23T01:13:05;18.20;99.90
59015;DHT22;44799;53.382;14.666;2022-07-23T01:15:33;18.20;99.90
59015;DHT22;44799;53.382;14.666;2022-07-23T01:18:00;18.20;99.90
59015;DHT22;44799;53.382;14.666;2022-07-23T01:20:26;18.10;99.90
59015;DHT22;44799;53.382;14.666;2022-07-23T01:22:52;18.10;99.90
59015;DHT22;44799;53.382;14.666;2022-07-23T01:25:19;18.00;99.90
59015;DHT22;44799;53.382;14.666;2022-07-23T01:27:45;18.10;99.90
59015;DHT22;44799;53.382;14.666;2022-07-23T01:30:12;18.10;99.90
59015;DHT22;44799;53.382;14.666;2022-07-23T01:32:38;18.00;99.90
59015;DHT22;44799;53.382;14.666;2022-07-23T01:35:05;18.00;99.90
59015;DHT22;44799;53.382;14.666;2022-07-23T01:37:31;17.90;99.90
59015;DHT22;44799;53.382;14.666;2022-07-23T01:39:57;17.90;99.90
59015;DHT22;44799;53.382;14.666;2022-07-23T01:42:24;17.90;99.90
59015;DHT22;44799;53.382;14.666;2022-07-23T01:44:50;17.90;99.90
59015;DHT22;44799;53.382;14.666;2022-07-23T01:47:16;17.90;99.90
59015;DHT22;44799;53.382;14.666;2022-07-23T01:49:42;17.80;99.90
59015;DHT22;44799;53.382;14.666;2022-07-23T01:52:08;17.70;99.90
59015;DHT22;44799;53.382;14.666;2022-07-23T01:54:37;17.60;99.90
59015;DHT22;44799;53.382;14.666;2022-07-23T01:57:03;17.60;99.90
59015;DHT22;44799;53.382;14.666;2022-07-23T01:59:29;17.70;99.90
59015;DHT22;44799;53.382;14.666;2022-07-23T02:01:56;17.70;99.90
59015;DHT22;44799;53.382;14.666;2022-07-23T02:04:23;17.70;99.90
59015;DHT22;44799;53.382;14.666;2022-07-23T02:06:50;17.60;99.90
59015;DHT22;44799;53.382;14.666;2022-07-23T02:09:16;17.60;99.90
59015;DHT22;44799;53.382;14.666;2022-07-23T02:11:41;17.60;99.90
59015;DHT22;44799;53.382;14.666;2022-07-23T02:14:07;17.70;99.90
59015;DHT22;44799;53.382;14.666;2022-07-23T02:16:33;17.40;99.90
59015;DHT22;44799;53.382;14.666;2022-07-23T02:18:59;17.50;99.90
59015;DHT22;44799;53.382;14.666;2022-07-23T02:21:25;17.40;99.90
59015;DHT22;44799;53.382;14.666;2022-07-23T02:23:51;17.50;99.90
59015;DHT22;44799;53.382;14.666;2022-07-23T02:26:16;17.40;99.90
59015;DHT22;44799;53.382;14.666;2022-07-23T02:28:42;17.50;99.90
59015;DHT22;44799;53.382;14.666;2022-07-23T02:31:08;17.40;99.90
59015;DHT22;44799;53.382;14.666;2022-07-23T02:33:34;17.40;99.90
59015;DHT22;44799;53.382;14.666;2022-07-23T02:36:00;17.30;99.90
59015;DHT22;44799;53.382;14.666;2022-07-23T02:38:26;17.30;99.90
59015;DHT22;44799;53.382;14.666;2022-07-23T02:40:52;17.30;99.90
59015;DHT22;44799;53.382;14.666;2022-07-23T02:43:18;17.40;99.90
59015;DHT22;44799;53.382;14.666;2022-07-23T02:45:43;17.30;99.90
59015;DHT22;44799;53.382;14.666;2022-07-23T02:48:09;17.40;99.90
59015;DHT22;44799;53.382;14.666;2022-07-23T02:50:38;17.40;99.90
59015;DHT22;44799;53.382;14.666;2022-07-23T02:53:04;17.40;99.90
59015;DHT22;44799;53.382;14.666;2022-07-23T02:55:30;17.40;99.90
59015;DHT22;44799;53.382;14.666;2022-07-23T02:57:57;17.40;99.90
59015;DHT22;44799;53.382;14.666;2022-07-23T03:00:23;17.40;99.90
59015;DHT22;44799;53.382;14.666;2022-07-23T03:02:49;17.40;99.90
59015;DHT22;44799;53.382;14.666;2022-07-23T03:05:14;17.40;99.90
59015;DHT22;44799;53.382;14.666;2022-07-23T03:07:40;17.50;99.90
59015;DHT22;44799;53.382;14.666;2022-07-23T03:10:06;17.50;99.90
59015;DHT22;44799;53.382;14.666;2022-07-23T03:12:32;17.50;99.90
59015;DHT22;44799;53.382;14.666;2022-07-23T03:14:58;17.60;99.90
59015;DHT22;44799;53.382;14.666;2022-07-23T03:17:24;17.60;99.90
59015;DHT22;44799;53.382;14.666;2022-07-23T03:19:50;17.60;99.90
59015;DHT22;44799;53.382;14.666;2022-07-23T03:22:15;17.70;99.90
59015;DHT22;44799;53.382;14.666;2022-07-23T03:24:41;17.70;99.90
59015;DHT22;44799;53.382;14.666;2022-07-23T03:27:22;17.70;99.90
59015;DHT22;44799;53.382;14.666;2022-07-23T03:29:52;17.70;99.90
59015;DHT22;44799;53.382;14.666;2022-07-23T03:32:18;17.80;99.90
59015;DHT22;44799;53.382;14.666;2022-07-23T03:34:44;17.70;99.90
59015;DHT22;44799;53.382;14.666;2022-07-23T03:37:11;17.70;99.80
59015;DHT22;44799;53.382;14.666;2022-07-23T03:39:36;17.80;99.70
59015;DHT22;44799;53.382;14.666;2022-07-23T03:42:02;17.80;99.80
59015;DHT22;44799;53.382;14.666;2022-07-23T03:44:28;17.70;99.00
59015;DHT22;44799;53.382;14.666;2022-07-23T03:46:54;17.70;99.00
59015;DHT22;44799;53.382;14.666;2022-07-23T03:49:20;17.70;99.20
59015;DHT22;44799;53.382;14.666;2022-07-23T03:51:46;17.70;99.50
59015;DHT22;44799;53.382;14.666;2022-07-23T03:54:12;17.70;99.50
59015;DHT22;44799;53.382;14.666;2022-07-23T03:56:38;17.70;99.40
59015;DHT22;44799;53.382;14.666;2022-07-23T03:59:04;17.70;99.10
59015;DHT22;44799;53.382;14.666;2022-07-23T04:01:30;17.70;99.00
59015;DHT22;44799;53.382;14.666;2022-07-23T04:03:56;17.70;99.00
59015;DHT22;44799;53.382;14.666;2022-07-23T04:06:22;17.70;99.40
59015;DHT22;44799;53.382;14.666;2022-07-23T04:08:48;17.70;99.10
59015;DHT22;44799;53.382;14.666;2022-07-23T04:11:13;17.60;98.90
59015;DHT22;44799;53.382;14.666;2022-07-23T04:13:39;17.60;98.30
59015;DHT22;44799;53.382;14.666;2022-07-23T04:16:05;17.60;98.70
59015;DHT22;44799;53.382;14.666;2022-07-23T04:18:32;17.60;98.40
59015;DHT22;44799;53.382;14.666;2022-07-23T04:20:57;17.70;98.40
59015;DHT22;44799;53.382;14.666;2022-07-23T04:23:23;17.70;98.60
59015;DHT22;44799;53.382;14.666;2022-07-23T04:25:49;17.70;98.60
59015;DHT22;44799;53.382;14.666;2022-07-23T04:28:15;17.70;98.00
59015;DHT22;44799;53.382;14.666;2022-07-23T04:30:41;17.60;98.00
59015;DHT22;44799;53.382;14.666;2022-07-23T04:33:07;17.70;97.60
59015;DHT22;44799;53.382;14.666;2022-07-23T04:35:34;17.70;97.50
59015;DHT22;44799;53.382;14.666;2022-07-23T04:38:00;17.80;97.40
59015;DHT22;44799;53.382;14.666;2022-07-23T04:40:26;17.80;96.80
59015;DHT22;44799;53.382;14.666;2022-07-23T04:42:52;17.80;95.80
59015;DHT22;44799;53.382;14.666;2022-07-23T04:45:18;17.80;95.90
59015;DHT22;44799;53.382;14.666;2022-07-23T04:47:44;17.90;95.70
59015;DHT22;44799;53.382;14.666;2022-07-23T04:50:10;17.80;95.60
59015;DHT22;44799;53.382;14.666;2022-07-23T04:52:36;17.90;95.40
59015;DHT22;44799;53.382;14.666;2022-07-23T04:55:03;18.00;95.80
59015;DHT22;44799;53.382;14.666;2022-07-23T04:57:29;18.10;95.50
59015;DHT22;44799;53.382;14.666;2022-07-23T04:59:55;18.00;95.30
59015;DHT22;44799;53.382;14.666;2022-07-23T05:02:21;17.50;95.10
59015;DHT22;44799;53.382;14.666;2022-07-23T05:04:47;18.00;95.40
59015;DHT22;44799;53.382;14.666;2022-07-23T05:07:13;18.00;95.50
59015;DHT22;44799;53.382;14.666;2022-07-23T05:09:38;18.00;95.50
59015;DHT22;44799;53.382;14.666;2022-07-23T05:12:04;18.00;95.40
59015;DHT22;44799;53.382;14.666;2022-07-23T05:14:30;17.90;95.50
59015;DHT22;44799;53.382;14.666;2022-07-23T05:16:56;17.90;95.60
59015;DHT22;44799;53.382;14.666;2022-07-23T05:19:22;18.00;95.80
59015;DHT22;44799;53.382;14.666;2022-07-23T05:21:48;18.10;95.70
59015;DHT22;44799;53.382;14.666;2022-07-23T05:24:14;18.20;95.50
59015;DHT22;44799;53.382;14.666;2022-07-23T05:26:39;18.30;95.10
59015;DHT22;44799;53.382;14.666;2022-07-23T05:29:05;18.40;95.10
59015;DHT22;44799;53.382;14.666;2022-07-23T05:31:31;18.40;94.80
59015;DHT22;44799;53.382;14.666;2022-07-23T05:33:57;18.60;94.70
59015;DHT22;44799;53.382;14.666;2022-07-23T05:36:23;18.60;94.10
59015;DHT22;44799;53.382;14.666;2022-07-23T05:38:48;18.70;94.40
59015;DHT22;44799;53.382;14.666;2022-07-23T05:41:14;18.90;94.30
59015;DHT22;44799;53.382;14.666;2022-07-23T05:43:40;19.00;93.70
59015;DHT22;44799;53.382;14.666;2022-07-23T05:46:06;19.00;92.70
59015;DHT22;44799;53.382;14.666;2022-07-23T05:48:32;19.00;92.70
59015;DHT22;44799;53.382;14.666;2022-07-23T05:50:58;19.10;92.40
59015;DHT22;44799;53.382;14.666;2022-07-23T05:53:23;19.20;92.20
59015;DHT22;44799;53.382;14.666;2022-07-23T05:55:49;19.30;91.70
59015;DHT22;44799;53.382;14.666;2022-07-23T05:58:15;19.40;92.10
59015;DHT22;44799;53.382;14.666;2022-07-23T06:00:41;18.30;91.20
59015;DHT22;44799;53.382;14.666;2022-07-23T06:03:07;19.50;91.50
59015;DHT22;44799;53.382;14.666;2022-07-23T06:05:33;19.60;91.30
59015;DHT22;44799;53.382;14.666;2022-07-23T06:07:58;19.60;91.40
59015;DHT22;44799;53.382;14.666;2022-07-23T06:10:24;19.70;91.60
59015;DHT22;44799;53.382;14.666;2022-07-23T06:12:50;19.80;91.50
59015;DHT22;44799;53.382;14.666;2022-07-23T06:15:16;19.80;91.40
59015;DHT22;44799;53.382;14.666;2022-07-23T06:17:42;19.80;91.30
59015;DHT22;44799;53.382;14.666;2022-07-23T06:20:09;19.50;92.00
59015;DHT22;44799;53.382;14.666;2022-07-23T06:22:36;19.60;91.80
59015;DHT22;44799;53.382;14.666;2022-07-23T06:25:02;19.60;91.70
59015;DHT22;44799;53.382;14.666;2022-07-23T06:27:28;19.70;92.30
59015;DHT22;44799;53.382;14.666;2022-07-23T06:29:54;19.70;91.90
59015;DHT22;44799;53.382;14.666;2022-07-23T06:32:20;19.60;91.80
59015;DHT22;44799;53.382;14.666;2022-07-23T06:34:46;19.70;92.30
59015;DHT22;44799;53.382;14.666;2022-07-23T06:37:12;19.70;92.60
59015;DHT22;44799;53.382;14.666;2022-07-23T06:39:38;19.60;92.20
59015;DHT22;44799;53.382;14.666;2022-07-23T06:42:04;19.50;92.50
59015;DHT22;44799;53.382;14.666;2022-07-23T06:44:30;19.30;92.40
59015;DHT22;44799;53.382;14.666;2022-07-23T06:46:55;19.30;93.10
59015;DHT22;44799;53.382;14.666;2022-07-23T06:49:21;19.20;93.70
59015;DHT22;44799;53.382;14.666;2022-07-23T06:51:47;19.10;94.50
59015;DHT22;44799;53.382;14.666;2022-07-23T06:54:13;19.10;94.80
59015;DHT22;44799;53.382;14.666;2022-07-23T06:56:39;19.00;96.10
59015;DHT22;44799;53.382;14.666;2022-07-23T06:59:05;19.00;96.50
59015;DHT22;44799;53.382;14.666;2022-07-23T07:01:31;18.90;96.80
59015;DHT22;44799;53.382;14.666;2022-07-23T07:03:57;18.40;96.60
59015;DHT22;44799;53.382;14.666;2022-07-23T07:06:23;18.80;97.10
59015;DHT22;44799;53.382;14.666;2022-07-23T07:08:49;18.70;97.20
59015;DHT22;44799;53.382;14.666;2022-07-23T07:11:15;18.70;97.00
59015;DHT22;44799;53.382;14.666;2022-07-23T07:13:41;18.60;98.40
59015;DHT22;44799;53.382;14.666;2022-07-23T07:16:07;18.50;97.70
59015;DHT22;44799;53.382;14.666;2022-07-23T07:18:33;18.50;97.30
59015;DHT22;44799;53.382;14.666;2022-07-23T07:20:59;18.50;97.80
59015;DHT22;44799;53.382;14.666;2022-07-23T07:23:24;18.40;97.80
59015;DHT22;44799;53.382;14.666;2022-07-23T07:25:50;18.50;97.60
59015;DHT22;44799;53.382;14.666;2022-07-23T07:28:16;18.60;97.40
59015;DHT22;44799;53.382;14.666;2022-07-23T07:30:42;18.70;97.80
59015;DHT22;44799;53.382;14.666;2022-07-23T07:33:08;18.80;98.40
59015;DHT22;44799;53.382;14.666;2022-07-23T07:35:34;18.90;96.70
59015;DHT22;44799;53.382;14.666;2022-07-23T07:38:00;18.80;95.60
59015;DHT22;44799;53.382;14.666;2022-07-23T07:40:26;18.90;95.50
59015;DHT22;44799;53.382;14.666;2022-07-23T07:42:53;18.90;96.40
59015;DHT22;44799;53.382;14.666;2022-07-23T07:45:20;19.10;96.90
59015;DHT22;44799;53.382;14.666;2022-07-23T07:47:47;19.20;95.60
59015;DHT22;44799;53.382;14.666;2022-07-23T07:50:13;19.40;94.90
59015;DHT22;44799;53.382;14.666;2022-07-23T07:52:39;19.20;94.60
59015;DHT22;44799;53.382;14.666;2022-07-23T07:55:06;19.40;94.70
59015;DHT22;44799;53.382;14.666;2022-07-23T07:57:33;19.40;94.50
59015;DHT22;44799;53.382;14.666;2022-07-23T07:59:59;19.40;94.70
59015;DHT22;44799;53.382;14.666;2022-07-23T08:02:25;19.50;95.10
59015;DHT22;44799;53.382;14.666;2022-07-23T08:04:51;19.50;95.20
59015;DHT22;44799;53.382;14.666;2022-07-23T08:07:18;19.50;94.90
59015;DHT22;44799;53.382;14.666;2022-07-23T08:09:44;19.40;94.20
59015;DHT22;44799;53.382;14.666;2022-07-23T08:12:10;19.50;94.00
59015;DHT22;44799;53.382;14.666;2022-07-23T08:14:36;19.30;94.10
59015;DHT22;44799;53.382;14.666;2022-07-23T08:17:02;19.40;94.90
59015;DHT22;44799;53.382;14.666;2022-07-23T08:19:28;19.50;94.90
59015;DHT22;44799;53.382;14.666;2022-07-23T08:21:53;19.50;94.80
59015;DHT22;44799;53.382;14.666;2022-07-23T08:24:19;19.50;94.70
59015;DHT22;44799;53.382;14.666;2022-07-23T08:26:45;19.60;94.70
59015;DHT22;44799;53.382;14.666;2022-07-23T08:29:11;19.50;94.40
59015;DHT22;44799;53.382;14.666;2022-07-23T08:31:37;19.30;94.70
59015;DHT22;44799;53.382;14.666;2022-07-23T08:34:03;19.30;95.00
59015;DHT22;44799;53.382;14.666;2022-07-23T08:36:29;19.30;95.60
59015;DHT22;44799;53.382;14.666;2022-07-23T08:38:58;19.40;95.60
59015;DHT22;44799;53.382;14.666;2022-07-23T08:41:25;19.40;95.20
59015;DHT22;44799;53.382;14.666;2022-07-23T08:43:51;19.50;95.10
59015;DHT22;44799;53.382;14.666;2022-07-23T08:46:19;19.60;95.70
59015;DHT22;44799;53.382;14.666;2022-07-23T08:48:48;19.50;95.30
59015;DHT22;44799;53.382;14.666;2022-07-23T08:51:15;19.40;94.50
59015;DHT22;44799;53.382;14.666;2022-07-23T08:53:41;19.40;95.00
59015;DHT22;44799;53.382;14.666;2022-07-23T08:56:07;19.30;95.60
59015;DHT22;44799;53.382;14.666;2022-07-23T08:58:34;19.50;96.40
59015;DHT22;44799;53.382;14.666;2022-07-23T09:01:00;19.50;96.20
59015;DHT22;44799;53.382;14.666;2022-07-23T09:03:30;19.60;95.50
59015;DHT22;44799;53.382;14.666;2022-07-23T09:05:57;19.60;95.40
59015;DHT22;44799;53.382;14.666;2022-07-23T09:10:58;19.60;95.90
59015;DHT22;44799;53.382;14.666;2022-07-23T09:16:11;19.90;96.20
59015;DHT22;44799;53.382;14.666;2022-07-23T09:18:59;20.10;95.80
59015;DHT22;44799;53.382;14.666;2022-07-23T09:21:30;20.30;93.40
59015;DHT22;44799;53.382;14.666;2022-07-23T09:26:39;20.50;93.80
59015;DHT22;44799;53.382;14.666;2022-07-23T09:29:25;20.30;92.40
59015;DHT22;44799;53.382;14.666;2022-07-23T09:31:59;20.40;92.90
59015;DHT22;44799;53.382;14.666;2022-07-23T09:34:34;20.50;91.70
59015;DHT22;44799;53.382;14.666;2022-07-23T09:37:17;20.60;91.70
59015;DHT22;44799;53.382;14.666;2022-07-23T09:39:45;20.60;91.50
59015;DHT22;44799;53.382;14.666;2022-07-23T09:44:44;20.50;91.40
59015;DHT22;44799;53.382;14.666;2022-07-23T09:47:10;20.70;91.70
59015;DHT22;44799;53.382;14.666;2022-07-23T09:49:36;20.80;91.60
59015;DHT22;44799;53.382;14.666;2022-07-23T09:52:02;20.80;91.80
59015;DHT22;44799;53.382;14.666;2022-07-23T09:54:31;20.70;89.70
59015;DHT22;44799;53.382;14.666;2022-07-23T09:57:02;20.70;90.40
59015;DHT22;44799;53.382;14.666;2022-07-23T09:59:34;20.80;90.30
59015;DHT22;44799;53.382;14.666;2022-07-23T10:02:00;21.00;91.10
59015;DHT22;44799;53.382;14.666;2022-07-23T10:04:30;21.10;90.20
59015;DHT22;44799;53.382;14.666;2022-07-23T10:06:58;21.20;88.30
59015;DHT22;44799;53.382;14.666;2022-07-23T10:09:33;21.00;87.50
59015;DHT22;44799;53.382;14.666;2022-07-23T10:12:02;21.10;87.60
59015;DHT22;44799;53.382;14.666;2022-07-23T10:14:34;21.10;86.80
59015;DHT22;44799;53.382;14.666;2022-07-23T10:17:03;21.00;86.70
59015;DHT22;44799;53.382;14.666;2022-07-23T10:19:30;20.90;87.90
59015;DHT22;44799;53.382;14.666;2022-07-23T10:22:00;21.00;86.40
59015;DHT22;44799;53.382;14.666;2022-07-23T10:35:46;21.50;84.30
59015;DHT22;44799;53.382;14.666;2022-07-23T10:38:15;21.60;84.30
59015;DHT22;44799;53.382;14.666;2022-07-23T10:41:04;21.80;83.50
59015;DHT22;44799;53.382;14.666;2022-07-23T10:43:30;21.80;82.90
59015;DHT22;44799;53.382;14.666;2022-07-23T10:49:27;21.90;81.90
59015;DHT22;44799;53.382;14.666;2022-07-23T10:52:16;22.10;82.10
59015;DHT22;44799;53.382;14.666;2022-07-23T10:54:48;22.20;82.70
59015;DHT22;44799;53.382;14.666;2022-07-23T10:57:17;22.40;81.60
59015;DHT22;44799;53.382;14.666;2022-07-23T11:02:33;22.50;80.00
59015;DHT22;44799;53.382;14.666;2022-07-23T11:05:01;22.50;81.30
59015;DHT22;44799;53.382;14.666;2022-07-23T11:07:28;22.60;78.70
59015;DHT22;44799;53.382;14.666;2022-07-23T11:09:54;22.50;78.60
59015;DHT22;44799;53.382;14.666;2022-07-23T11:17:58;22.50;78.00
59015;DHT22;44799;53.382;14.666;2022-07-23T11:20:25;22.40;77.70
59015;DHT22;44799;53.382;14.666;2022-07-23T11:22:58;22.60;79.10
59015;DHT22;44799;53.382;14.666;2022-07-23T11:27:51;22.70;77.90
59015;DHT22;44799;53.382;14.666;2022-07-23T11:35:43;22.60;78.50
59015;DHT22;44799;53.382;14.666;2022-07-23T11:38:16;22.60;79.00
59015;DHT22;44799;53.382;14.666;2022-07-23T11:40:45;22.60;78.80
59015;DHT22;44799;53.382;14.666;2022-07-23T11:43:11;22.70;78.80
59015;DHT22;44799;53.382;14.666;2022-07-23T11:45:40;22.70;79.70
59015;DHT22;44799;53.382;14.666;2022-07-23T11:48:09;22.90;75.70
59015;DHT22;44799;53.382;14.666;2022-07-23T11:50:36;22.90;76.60
59015;DHT22;44799;53.382;14.666;2022-07-23T11:53:02;23.00;75.00
59015;DHT22;44799;53.382;14.666;2022-07-23T11:55:29;23.00;73.40
59015;DHT22;44799;53.382;14.666;2022-07-23T11:57:56;23.10;71.60
59015;DHT22;44799;53.382;14.666;2022-07-23T12:00:24;23.00;71.70
59015;DHT22;44799;53.382;14.666;2022-07-23T12:02:59;23.10;70.90
59015;DHT22;44799;53.382;14.666;2022-07-23T12:05:29;23.20;70.50
59015;DHT22;44799;53.382;14.666;2022-07-23T12:07:56;23.30;70.20
59015;DHT22;44799;53.382;14.666;2022-07-23T12:10:34;23.40;70.30
59015;DHT22;44799;53.382;14.666;2022-07-23T12:13:06;23.60;69.20
59015;DHT22;44799;53.382;14.666;2022-07-23T12:15:38;23.80;68.10
59015;DHT22;44799;53.382;14.666;2022-07-23T12:18:06;24.20;71.50
59015;DHT22;44799;53.382;14.666;2022-07-23T12:20:44;24.50;69.00
59015;DHT22;44799;53.382;14.666;2022-07-23T12:23:12;24.50;68.30
59015;DHT22;44799;53.382;14.666;2022-07-23T12:25:41;24.70;66.70
59015;DHT22;44799;53.382;14.666;2022-07-23T12:30:46;24.80;67.70
59015;DHT22;44799;53.382;14.666;2022-07-23T12:33:36;25.10;65.90
59015;DHT22;44799;53.382;14.666;2022-07-23T12:36:07;25.30;64.20
59015;DHT22;44799;53.382;14.666;2022-07-23T12:38:51;25.40;65.20
59015;DHT22;44799;53.382;14.666;2022-07-23T12:41:17;25.50;63.80
59015;DHT22;44799;53.382;14.666;2022-07-23T12:43:45;25.70;63.60
59015;DHT22;44799;53.382;14.666;2022-07-23T12:51:29;26.20;63.90
59015;DHT22;44799;53.382;14.666;2022-07-23T12:54:08;26.20;63.00
59015;DHT22;44799;53.382;14.666;2022-07-23T12:56:39;26.00;63.40
59015;DHT22;44799;53.382;14.666;2022-07-23T12:59:11;26.00;63.70
59015;DHT22;44799;53.382;14.666;2022-07-23T13:01:41;25.80;65.10
59015;DHT22;44799;53.382;14.666;2022-07-23T13:04:11;26.00;63.40
59015;DHT22;44799;53.382;14.666;2022-07-23T13:06:48;26.10;65.10
59015;DHT22;44799;53.382;14.666;2022-07-23T13:09:17;26.40;62.30
59015;DHT22;44799;53.382;14.666;2022-07-23T13:11:44;26.70;61.10
59015;DHT22;44799;53.382;14.666;2022-07-23T13:14:11;26.50;61.10
59015;DHT22;44799;53.382;14.666;2022-07-23T13:16:37;26.30;61.10
59015;DHT22;44799;53.382;14.666;2022-07-23T13:19:04;26.20;61.00
59015;DHT22;44799;53.382;14.666;2022-07-23T13:21:30;26.10;61.10
59015;DHT22;44799;53.382;14.666;2022-07-23T13:23:56;26.30;60.80
59015;DHT22;44799;53.382;14.666;2022-07-23T13:26:22;26.30;60.70
59015;DHT22;44799;53.382;14.666;2022-07-23T13:28:48;26.30;60.70
59015;DHT22;44799;53.382;14.666;2022-07-23T13:31:16;26.70;62.00
59015;DHT22;44799;53.382;14.666;2022-07-23T13:33:42;26.90;59.80
59015;DHT22;44799;53.382;14.666;2022-07-23T13:36:08;26.90;59.60
59015;DHT22;44799;53.382;14.666;2022-07-23T13:38:34;26.90;59.40
59015;DHT22;44799;53.382;14.666;2022-07-23T13:41:00;26.60;59.80
59015;DHT22;44799;53.382;14.666;2022-07-23T13:43:29;26.30;59.80
59015;DHT22;44799;53.382;14.666;2022-07-23T13:45:55;26.00;60.10
59015;DHT22;44799;53.382;14.666;2022-07-23T13:48:21;25.70;61.10
59015;DHT22;44799;53.382;14.666;2022-07-23T13:50:48;25.40;60.90
59015;DHT22;44799;53.382;14.666;2022-07-23T13:53:18;25.20;61.40
59015;DHT22;44799;53.382;14.666;2022-07-23T13:55:45;25.40;62.50
59015;DHT22;44799;53.382;14.666;2022-07-23T13:58:11;25.60;61.70
59015;DHT22;44799;53.382;14.666;2022-07-23T14:00:41;25.50;60.70
59015;DHT22;44799;53.382;14.666;2022-07-23T14:03:07;25.50;61.30
59015;DHT22;44799;53.382;14.666;2022-07-23T14:05:33;25.50;65.60
59015;DHT22;44799;53.382;14.666;2022-07-23T14:07:59;25.20;68.50
59015;DHT22;44799;53.382;14.666;2022-07-23T14:10:25;24.90;67.20
59015;DHT22;44799;53.382;14.666;2022-07-23T14:12:52;24.90;70.40
59015;DHT22;44799;53.382;14.666;2022-07-23T14:15:18;24.70;69.50
59015;DHT22;44799;53.382;14.666;2022-07-23T14:17:45;24.40;69.30
59015;DHT22;44799;53.382;14.666;2022-07-23T14:20:12;24.20;70.00
59015;DHT22;44799;53.382;14.666;2022-07-23T14:22:39;24.10;71.00
59015;DHT22;44799;53.382;14.666;2022-07-23T14:25:06;23.90;71.10
59015;DHT22;44799;53.382;14.666;2022-07-23T14:27:33;23.70;72.50
59015;DHT22;44799;53.382;14.666;2022-07-23T14:29:59;23.70;72.40
59015;DHT22;44799;53.382;14.666;2022-07-23T14:32:25;23.70;74.10
59015;DHT22;44799;53.382;14.666;2022-07-23T14:34:51;23.50;73.50
59015;DHT22;44799;53.382;14.666;2022-07-23T14:37:18;23.50;74.50
59015;DHT22;44799;53.382;14.666;2022-07-23T14:39:45;23.50;73.60
59015;DHT22;44799;53.382;14.666;2022-07-23T14:42:11;23.30;74.00
59015;DHT22;44799;53.382;14.666;2022-07-23T14:44:37;23.20;74.90
59015;DHT22;44799;53.382;14.666;2022-07-23T14:47:05;23.10;75.60
59015;DHT22;44799;53.382;14.666;2022-07-23T14:49:32;23.10;76.40
59015;DHT22;44799;53.382;14.666;2022-07-23T14:51:58;22.90;75.90
59015;DHT22;44799;53.382;14.666;2022-07-23T14:54:25;22.80;76.70
59015;DHT22;44799;53.382;14.666;2022-07-23T14:56:58;22.90;76.40
59015;DHT22;44799;53.382;14.666;2022-07-23T14:59:24;23.00;75.30
59015;DHT22;44799;53.382;14.666;2022-07-23T15:01:51;22.90;76.40
59015;DHT22;44799;53.382;14.666;2022-07-23T15:04:17;22.80;76.60
59015;DHT22;44799;53.382;14.666;2022-07-23T15:06:43;22.70;76.80
59015;DHT22;44799;53.382;14.666;2022-07-23T15:09:10;22.70;77.70
59015;DHT22;44799;53.382;14.666;2022-07-23T15:11:36;22.70;76.40
59015;DHT22;44799;53.382;14.666;2022-07-23T15:14:04;22.70;76.50
59015;DHT22;44799;53.382;14.666;2022-07-23T15:16:30;22.80;77.40
59015;DHT22;44799;53.382;14.666;2022-07-23T15:18:56;22.90;76.20
59015;DHT22;44799;53.382;14.666;2022-07-23T15:21:22;22.90;75.10
59015;DHT22;44799;53.382;14.666;2022-07-23T15:23:48;23.10;76.30
59015;DHT22;44799;53.382;14.666;2022-07-23T15:26:15;23.20;75.90
59015;DHT22;44799;53.382;14.666;2022-07-23T15:28:41;23.20;76.40
59015;DHT22;44799;53.382;14.666;2022-07-23T15:31:07;23.20;76.50
59015;DHT22;44799;53.382;14.666;2022-07-23T15:33:33;23.10;76.30
59015;DHT22;44799;53.382;14.666;2022-07-23T15:36:00;23.10;77.00
59015;DHT22;44799;53.382;14.666;2022-07-23T15:38:27;23.10;76.50
59015;DHT22;44799;53.382;14.666;2022-07-23T15:40:56;22.90;76.80
59015;DHT22;44799;53.382;14.666;2022-07-23T15:43:23;23.00;77.40
59015;DHT22;44799;53.382;14.666;2022-07-23T15:45:50;22.90;76.60
59015;DHT22;44799;53.382;14.666;2022-07-23T15:48:16;23.00;77.60
59015;DHT22;44799;53.382;14.666;2022-07-23T15:50:43;23.10;78.80
59015;DHT22;44799;53.382;14.666;2022-07-23T15:53:08;23.40;78.60
59015;DHT22;44799;53.382;14.666;2022-07-23T15:55:34;23.90;78.40
59015;DHT22;44799;53.382;14.666;2022-07-23T15:58:01;24.20;76.10
59015;DHT22;44799;53.382;14.666;2022-07-23T16:00:26;24.30;73.80
59015;DHT22;44799;53.382;14.666;2022-07-23T16:02:52;24.20;73.20
59015;DHT22;44799;53.382;14.666;2022-07-23T16:05:18;24.20;67.30